Rowe, New Mexico
Current Conditions -  °F | °C
As of 8:53 PM on Wednesday 22 Oct 2014 (Local Time) from KSAF Reporting Station
NA  
Wind Chill: 54°   Ceiling: NA
Heat Index: 54°   Visibility: 10mi
Dew Point: 38°   Wind: 5mph
Humidity: 55%   Direction: 60°ENE
Pressure: 30.21"   Gusts: NA
Location:  35.49°N, 105.68°W
Report Text: KSAF 230253Z AUTO 06004KT 10SM 12/03 A3021 RMK AO2 SLP172 T01220033 $
Loading
Personal Weather Stations






























Interactive Weather Map
Tropical Storm Tracking
New forecast layout! Learn more

10-Day Weather Forecast

Advertisements
Track Severe Weather on mobile